Time;durP1;ratioP1;P1;durP2;ratioP2;P2;SDS_P1;SDS_P2;PMS_P1;PMS_P2;Temp;Humidity;BMP_temperature;BMP_pressure;BME280_temperature;BME280_humidity;BME280_pressure;Samples;Min_cycle;Max_cycle;Signal;HPM_P1;HPM_P2
2022/08/29 00:02:23;;;;;;;;;;;;;;;17.63;76.78;96685.34;5041228;28;19954;-83
2022/08/29 00:04:50;;;;;;;;;;;;;;;17.60;76.43;96683.22;5043844;28;20004;-83
2022/08/29 00:07:16;;;;;;;;;;;;;;;17.60;76.57;96687.72;5044383;28;19965;-83
2022/08/29 00:09:42;;;;;;;;;;;;;;;17.58;76.25;96687.97;5043337;28;19968;-83
2022/08/29 00:12:08;;;;;;;;;;;;;;;17.56;76.07;96681.34;5039299;28;20455;-83
2022/08/29 00:14:34;;;;;;;;;;;;;;;17.52;76.20;96688.22;5041778;28;20328;-83
2022/08/29 00:17:00;;;;;;;;;;;;;;;17.49;76.01;96678.09;5043212;28;19975;-83
2022/08/29 00:19:26;;;;;;;;;;;;;;;17.43;76.15;96685.25;5046062;28;19960;-83
2022/08/29 00:21:52;;;;;;;;;;;;;;;17.38;76.79;96686.00;5036688;28;19956;-83
2022/08/29 00:24:18;;;;;;;;;;;;;;;17.33;76.74;96691.28;5042845;28;20354;-83
2022/08/29 00:26:44;;;;;;;;;;;;;;;17.28;76.57;96691.22;5042763;28;20023;-83
2022/08/29 00:29:10;;;;;;;;;;;;;;;17.24;76.88;96693.59;5044066;28;20371;-83
2022/08/29 00:31:36;;;;;;;;;;;;;;;17.20;77.17;96697.81;5049340;28;20004;-83
2022/08/29 00:34:02;;;;;;;;;;;;;;;17.16;77.46;96699.38;5050637;28;20014;-83
2022/08/29 00:36:28;;;;;;;;;;;;;;;17.14;77.72;96698.81;5050031;28;20350;-83
2022/08/29 00:38:54;;;;;;;;;;;;;;;17.09;77.49;96693.47;5044664;28;19968;-83
2022/08/29 00:41:20;;;;;;;;;;;;;;;17.07;77.50;96702.72;5050134;28;19982;-83
2022/08/29 00:43:46;;;;;;;;;;;;;;;17.01;77.81;96705.34;5048928;28;20357;-83
2022/08/29 00:46:37;;;;;;;;;;;;;;;16.98;77.88;96695.25;5050197;28;19953;-83
2022/08/29 00:49:10;;;;;;;;;;;;;;;16.93;77.89;96686.47;5038200;28;19953;-83
2022/08/29 00:51:36;;;;;;;;;;;;;;;16.90;78.45;96689.59;5034105;28;20349;-83
2022/08/29 00:54:05;;;;;;;;;;;;;;;16.85;78.78;96685.06;5044334;28;19961;-83
2022/08/29 00:56:31;;;;;;;;;;;;;;;16.80;78.76;96683.19;5053433;28;19977;-83
2022/08/29 00:58:59;;;;;;;;;;;;;;;16.79;78.55;96680.75;5054153;28;20334;-83
2022/08/29 01:01:25;;;;;;;;;;;;;;;16.79;78.45;96680.75;5049146;28;19954;-83
2022/08/29 01:03:52;;;;;;;;;;;;;;;16.79;78.15;96684.19;5047067;28;19954;-83
2022/08/29 01:06:18;;;;;;;;;;;;;;;16.81;78.35;96690.06;5047803;28;19968;-83
2022/08/29 01:08:44;;;;;;;;;;;;;;;16.79;78.51;96689.47;5049429;28;19968;-83
2022/08/29 01:13:57;;;;;;;;;;;;;;;16.76;78.22;96691.84;5051536;28;19960;-83
2022/08/29 01:16:24;;;;;;;;;;;;;;;16.72;78.32;96693.41;5044992;28;20417;-83
2022/08/29 01:18:52;;;;;;;;;;;;;;;16.68;78.11;96693.09;5049992;28;19966;-83
2022/08/29 01:21:38;;;;;;;;;;;;;;;16.64;78.06;96692.00;5054718;28;20337;-83
2022/08/29 01:24:18;;;;;;;;;;;;;;;16.58;78.12;96688.50;5055714;28;19967;-83
2022/08/29 01:26:46;;;;;;;;;;;;;;;16.56;78.15;96689.78;5042692;28;19984;-83
2022/08/29 01:29:12;;;;;;;;;;;;;;;16.54;78.41;96699.84;5043418;28;19966;-83
2022/08/29 01:31:40;;;;;;;;;;;;;;;16.52;78.55;96699.28;5048576;28;19959;-83
2022/08/29 01:34:06;;;;;;;;;;;;;;;16.52;78.40;96694.00;5049602;28;19957;-83
2022/08/29 01:36:34;;;;;;;;;;;;;;;16.51;78.27;96695.84;5050376;28;19981;-83
2022/08/29 01:39:00;;;;;;;;;;;;;;;16.52;78.27;96696.63;5050162;28;19957;-83
2022/08/29 01:41:27;;;;;;;;;;;;;;;16.51;78.10;96693.19;5044007;28;19959;-83
2022/08/29 01:43:54;;;;;;;;;;;;;;;16.50;77.87;96702.19;5042564;28;19958;-83
2022/08/29 01:46:22;;;;;;;;;;;;;;;16.50;77.80;96699.53;5049334;28;19951;-83
2022/08/29 01:48:48;;;;;;;;;;;;;;;16.50;77.54;96699.53;5052761;28;19968;-83
2022/08/29 01:51:15;;;;;;;;;;;;;;;16.51;77.84;96697.69;5045218;28;19966;-83
2022/08/29 01:53:41;;;;;;;;;;;;;;;16.50;77.92;96696.88;5041020;28;20428;-83
2022/08/29 01:56:10;;;;;;;;;;;;;;;16.52;77.54;96704.59;5051661;28;19956;-83
2022/08/29 01:58:36;;;;;;;;;;;;;;;16.51;77.40;96695.84;5048214;28;19963;-83
2022/08/29 02:01:02;;;;;;;;;;;;;;;16.51;77.37;96693.19;5059463;28;20305;-83
2022/08/29 02:03:28;;;;;;;;;;;;;;;16.52;77.49;96696.63;5045173;28;19976;-83
2022/08/29 02:05:57;;;;;;;;;;;;;;;16.52;77.58;96691.34;5046513;28;20060;-83
2022/08/29 02:08:23;;;;;;;;;;;;;;;16.51;77.35;96695.84;5043502;28;19963;-83
2022/08/29 02:10:49;;;;;;;;;;;;;;;16.51;77.83;96698.50;5047288;28;20380;-83
2022/08/29 02:13:15;;;;;;;;;;;;;;;16.49;77.64;96697.94;5044148;28;19970;-83
2022/08/29 02:15:40;;;;;;;;;;;;;;;16.50;77.70;96706.69;5041659;28;19971;-83
2022/08/29 02:18:06;;;;;;;;;;;;;;;16.49;77.77;96695.28;5046988;28;20485;-83
2022/08/29 02:20:32;;;;;;;;;;;;;;;16.47;78.10;96693.94;5047933;28;19961;-83
2022/08/29 02:22:58;;;;;;;;;;;;;;;16.44;78.18;96697.88;5049990;28;20002;-83
2022/08/29 02:25:42;;;;;;;;;;;;;;;16.39;78.25;96701.28;5046300;28;20055;-83
2022/08/29 02:28:10;;;;;;;;;;;;;;;16.34;77.92;96695.94;5041444;28;19970;-83
2022/08/29 02:30:37;;;;;;;;;;;;;;;16.30;78.01;96688.75;5045321;28;19958;-83
2022/08/29 02:33:04;;;;;;;;;;;;;;;16.25;78.10;96692.13;5039889;28;20338;-83
2022/08/29 02:35:29;;;;;;;;;;;;;;;16.22;78.27;96690.75;5042755;28;19985;-83
2022/08/29 02:37:55;;;;;;;;;;;;;;;16.20;78.43;96692.06;5048929;28;19981;-83
2022/08/29 02:40:21;;;;;;;;;;;;;;;16.16;78.71;96688.31;5046147;28;19965;-82
2022/08/29 02:42:47;;;;;;;;;;;;;;;16.11;78.97;96686.41;5040693;28;20055;-83
2022/08/29 02:45:13;;;;;;;;;;;;;;;16.09;78.73;96688.50;5044295;28;20002;-83
2022/08/29 02:47:40;;;;;;;;;;;;;;;16.07;78.54;96684.50;5049820;28;20017;-83
2022/08/29 02:50:08;;;;;;;;;;;;;;;16.03;78.90;96679.69;5039009;28;19953;-83
2022/08/29 02:52:33;;;;;;;;;;;;;;;16.02;78.71;96686.06;5046283;28;19958;-83
2022/08/29 02:54:59;;;;;;;;;;;;;;;16.01;79.56;96687.09;5046988;28;19957;-83
2022/08/29 02:57:25;;;;;;;;;;;;;;;16.03;79.19;96690.28;5047509;28;19986;-83
2022/08/29 02:59:51;;;;;;;;;;;;;;;16.01;79.17;96686.28;5045279;28;19958;-83
2022/08/29 03:02:17;;;;;;;;;;;;;;;16.00;79.31;96688.16;5042110;28;19985;-83
2022/08/29 03:04:43;;;;;;;;;;;;;;;16.00;79.45;96684.69;5062249;28;20001;-83
2022/08/29 03:07:09;;;;;;;;;;;;;;;15.99;79.42;96683.88;5047722;28;20425;-83
2022/08/29 03:09:35;;;;;;;;;;;;;;;15.98;79.48;96679.66;5060261;28;19987;-83
2022/08/29 03:12:01;;;;;;;;;;;;;;;15.96;79.53;96680.97;5040584;28;19963;-83
2022/08/29 03:14:27;;;;;;;;;;;;;;;15.94;79.70;96690.97;5043827;28;19969;-83
2022/08/29 03:16:52;;;;;;;;;;;;;;;15.88;79.74;96684.81;5050794;28;19967;-83
2022/08/29 03:19:18;;;;;;;;;;;;;;;15.83;79.55;96682.91;5047443;28;20046;-83
2022/08/29 03:21:44;;;;;;;;;;;;;;;15.80;79.74;96686.03;5038787;28;20459;-83
2022/08/29 03:24:10;;;;;;;;;;;;;;;15.75;79.96;96680.69;5042752;28;19960;-83
2022/08/29 03:26:36;;;;;;;;;;;;;;;15.71;80.10;96689.34;5041629;28;20397;-83
2022/08/29 03:29:02;;;;;;;;;;;;;;;15.67;80.43;96690.88;5040208;28;20415;-82
2022/08/29 03:31:28;;;;;;;;;;;;;;;15.59;80.33;96670.91;5046110;28;19969;-83
2022/08/29 03:33:55;;;;;;;;;;;;;;;15.57;80.51;96678.28;5049227;28;19961;-83
2022/08/29 03:36:23;;;;;;;;;;;;;;;15.57;81.06;96683.59;5044586;28;19952;-82
2022/08/29 03:38:49;;;;;;;;;;;;;;;15.56;81.01;96680.16;5048636;28;19953;-83
2022/08/29 03:41:20;;;;;;;;;;;;;;;15.57;81.11;96687.03;5045114;28;19969;-83
2022/08/29 03:43:46;;;;;;;;;;;;;;;15.59;81.27;96686.78;5025363;28;19969;-83
2022/08/29 03:46:12;;;;;;;;;;;;;;;15.58;81.21;96687.81;5043640;28;20036;-83
2022/08/29 03:48:38;;;;;;;;;;;;;;;15.57;81.56;96691.50;5044256;28;19995;-83
2022/08/29 03:51:03;;;;;;;;;;;;;;;15.56;81.45;96693.38;5042526;28;20537;-83
2022/08/29 03:53:31;;;;;;;;;;;;;;;15.55;81.41;96696.25;5041884;28;20041;-83
2022/08/29 03:55:56;;;;;;;;;;;;;;;15.52;81.20;96705.47;5047447;28;19980;-83
2022/08/29 03:58:23;;;;;;;;;;;;;;;15.50;81.46;96702.25;5044587;28;19986;-83
2022/08/29 04:00:48;;;;;;;;;;;;;;;15.48;80.88;96700.91;5040624;28;19969;-83
2022/08/29 04:03:14;;;;;;;;;;;;;;;15.45;80.98;96702.19;5041109;28;20010;-83
2022/08/29 04:05:40;;;;;;;;;;;;;;;15.40;80.98;96708.19;5048847;28;19986;-82
2022/08/29 04:08:07;;;;;;;;;;;;;;;15.37;81.02;96698.13;5040429;28;19957;-83
2022/08/29 04:10:36;;;;;;;;;;;;;;;15.35;81.06;96699.38;5044846;28;20300;-83
2022/08/29 04:13:02;;;;;;;;;;;;;;;15.32;81.33;96708.59;5037420;28;19967;-83
2022/08/29 04:15:29;;;;;;;;;;;;;;;15.29;81.33;96708.31;5048514;28;20306;-83
2022/08/29 04:17:56;;;;;;;;;;;;;;;15.26;81.17;96708.75;5045206;28;19987;-83
2022/08/29 04:20:23;;;;;;;;;;;;;;;15.23;80.93;96704.78;5044676;28;19961;-83
2022/08/29 04:22:49;;;;;;;;;;;;;;;15.19;80.95;96712.38;5053395;28;19963;-83
2022/08/29 04:25:16;;;;;;;;;;;;;;;15.17;80.97;96705.72;5044411;28;20002;-82
2022/08/29 04:27:43;;;;;;;;;;;;;;;15.14;80.91;96709.66;5044152;28;20330;-82
2022/08/29 04:30:13;;;;;;;;;;;;;;;15.12;81.23;96711.75;5041223;28;21353;-83
2022/08/29 04:32:39;;;;;;;;;;;;;;;15.10;81.62;96723.56;5049773;28;19975;-82
2022/08/29 04:35:05;;;;;;;;;;;;;;;15.08;81.21;96715.09;5022018;28;20040;-82
2022/08/29 04:37:31;;;;;;;;;;;;;;;15.06;80.75;96712.69;5042636;28;19989;-82
2022/08/29 04:39:57;;;;;;;;;;;;;;;15.04;80.99;96706.84;5040227;28;19958;-82
2022/08/29 04:42:23;;;;;;;;;;;;;;;15.03;81.31;96710.50;5048196;28;20002;-83
2022/08/29 04:44:49;;;;;;;;;;;;;;;15.01;81.29;96712.59;5043886;28;19959;-82
2022/08/29 04:47:15;;;;;;;;;;;;;;;15.01;81.29;96702.03;5043860;28;19960;-82
2022/08/29 04:49:41;;;;;;;;;;;;;;;14.99;81.39;96707.56;5037005;28;20352;-83
2022/08/29 04:52:08;;;;;;;;;;;;;;;14.97;81.29;96706.19;5043820;28;20335;-83
2022/08/29 04:54:33;;;;;;;;;;;;;;;14.97;81.40;96709.66;5041893;28;19969;-83
2022/08/29 04:57:02;;;;;;;;;;;;;;;14.95;81.58;96714.38;5048237;28;20005;-82
2022/08/29 04:59:28;;;;;;;;;;;;;;;14.93;81.67;96724.38;5041103;28;19959;-83
2022/08/29 05:01:54;;;;;;;;;;;;;;;14.92;81.74;96732.53;5043005;28;19959;-83
2022/08/29 05:04:20;;;;;;;;;;;;;;;14.91;81.50;96729.09;5043471;28;19966;-82
2022/08/29 05:06:46;;;;;;;;;;;;;;;14.88;81.97;96729.56;5041704;28;20037;-82
2022/08/29 05:09:12;;;;;;;;;;;;;;;14.87;82.04;96733.25;5043246;28;19957;-82
2022/08/29 05:11:39;;;;;;;;;;;;;;;14.86;82.10;96734.25;5039555;28;19967;-82
2022/08/29 05:14:04;;;;;;;;;;;;;;;14.92;82.26;96732.53;5042234;28;20023;-82
2022/08/29 05:16:35;;;;;;;;;;;;;;;15.12;82.04;96732.06;5045510;28;19964;-82
2022/08/29 05:19:03;;;;;;;;;;;;;;;15.40;81.40;96729.34;5047189;28;19984;-82
2022/08/29 05:21:30;;;;;;;;;;;;;;;15.73;80.42;96735.66;5048420;28;19970;-82
2022/08/29 05:23:57;;;;;;;;;;;;;;;16.05;79.30;96735.03;5043417;28;20351;-82
2022/08/29 05:26:23;;;;;;;;;;;;;;;16.38;78.44;96735.94;5046938;28;19985;-83
2022/08/29 05:28:50;;;;;;;;;;;;;;;16.70;77.34;96729.94;5046147;28;19971;-83
2022/08/29 05:31:16;;;;;;;;;;;;;;;17.02;76.05;96727.34;5052028;28;20452;-83
2022/08/29 05:33:42;;;;;;;;;;;;;;;17.31;75.47;96717.22;5042537;28;19975;-82
2022/08/29 05:36:08;;;;;;;;;;;;;;;17.59;74.21;96708.13;5043828;28;20407;-83
2022/08/29 05:38:34;;;;;;;;;;;;;;;17.91;73.47;96707.31;5051300;28;19973;-83
2022/08/29 05:41:00;;;;;;;;;;;;;;;18.21;72.37;96711.13;5045537;28;19991;-83
2022/08/29 05:43:28;;;;;;;;;;;;;;;18.52;71.06;96696.09;5047028;28;19956;-83
2022/08/29 05:46:01;;;;;;;;;;;;;;;18.78;70.07;96688.16;5044418;28;19960;-83
2022/08/29 05:48:27;;;;;;;;;;;;;;;19.06;69.18;96697.50;5039945;28;20437;-83
2022/08/29 05:50:53;;;;;;;;;;;;;;;19.29;68.63;96696.16;5048375;28;19960;-83
2022/08/29 05:53:19;;;;;;;;;;;;;;;19.47;67.29;96692.94;5050485;28;20012;-83
2022/08/29 05:55:45;;;;;;;;;;;;;;;19.67;66.93;96689.47;5044684;28;20393;-83
2022/08/29 05:58:11;;;;;;;;;;;;;;;19.88;65.99;96692.06;5039405;28;20066;-83
2022/08/29 06:00:40;;;;;;;;;;;;;;;20.11;65.25;96685.34;5048653;28;19970;-83
2022/08/29 06:03:06;;;;;;;;;;;;;;;20.28;64.64;96683.16;5047561;28;19978;-83
2022/08/29 06:05:31;;;;;;;;;;;;;;;20.43;65.31;96692.91;5049339;28;20429;-83
2022/08/29 06:07:58;;;;;;;;;;;;;;;20.57;63.82;96676.31;5046661;28;20046;-83
2022/08/29 06:10:24;;;;;;;;;;;;;;;20.79;62.97;96678.59;5046294;28;20330;-83
2022/08/29 06:12:50;;;;;;;;;;;;;;;21.00;62.84;96669.38;5049643;28;20009;-83
2022/08/29 06:15:16;;;;;;;;;;;;;;;21.15;61.78;96665.78;5048028;28;20411;-83
2022/08/29 06:17:42;;;;;;;;;;;;;;;21.27;61.56;96670.72;5040678;28;19975;-83
2022/08/29 06:20:08;;;;;;;;;;;;;;;21.35;61.30;96672.78;5030475;28;20373;-83
2022/08/29 06:22:35;;;;;;;;;;;;;;;21.45;60.42;96666.59;5046253;28;19958;-83
2022/08/29 06:25:01;;;;;;;;;;;;;;;21.53;60.42;96666.00;5043007;28;20399;-83
2022/08/29 06:27:27;;;;;;;;;;;;;;;21.62;61.27;96679.50;5039691;28;19961;-83
2022/08/29 06:29:53;;;;;;;;;;;;;;;21.67;60.27;96672.25;5046963;28;19966;-83
2022/08/29 06:32:18;;;;;;;;;;;;;;;21.72;61.23;96670.59;5046713;28;20471;-83
2022/08/29 06:34:44;;;;;;;;;;;;;;;21.75;59.88;96672.69;5046810;28;20403;-83
2022/08/29 06:37:10;;;;;;;;;;;;;;;21.82;60.37;96676.63;5040047;28;19960;-83
2022/08/29 06:39:36;;;;;;;;;;;;;;;21.91;58.57;96659.97;5047606;28;20431;-83
2022/08/29 06:42:02;;;;;;;;;;;;;;;21.96;59.58;96683.94;5047364;28;19956;-83
2022/08/29 06:44:30;;;;;;;;;;;;;;;22.02;59.02;96675.56;5040943;28;19962;-83
2022/08/29 06:46:56;;;;;;;;;;;;;;;22.03;58.16;96669.16;5045091;28;19969;-83
2022/08/29 06:49:23;;;;;;;;;;;;;;;22.04;59.22;96678.75;5049105;28;20327;-83
2022/08/29 06:51:51;;;;;;;;;;;;;;;22.05;59.62;96691.03;5049457;28;20364;-83
2022/08/29 06:54:18;;;;;;;;;;;;;;;22.08;60.36;96687.00;5038986;28;19953;-83
2022/08/29 06:56:45;;;;;;;;;;;;;;;22.09;59.80;96683.25;5038027;28;19959;-83
2022/08/29 06:59:11;;;;;;;;;;;;;;;22.07;59.63;96690.75;5047910;28;19992;-83
2022/08/29 07:01:38;;;;;;;;;;;;;;;22.12;60.24;96687.22;5039361;28;19961;-83
2022/08/29 07:04:04;;;;;;;;;;;;;;;21.99;60.05;96688.72;5049937;28;19954;-83
2022/08/29 07:06:30;;;;;;;;;;;;;;;21.94;60.70;96710.13;5043728;28;19977;-83
2022/08/29 07:08:57;;;;;;;;;;;;;;;22.02;60.36;96702.28;5048199;28;19989;-83
2022/08/29 07:11:24;;;;;;;;;;;;;;;22.10;60.32;96704.31;5045084;28;19957;-83
2022/08/29 07:13:49;;;;;;;;;;;;;;;22.10;59.98;96703.53;5040610;28;19980;-83
2022/08/29 07:16:17;;;;;;;;;;;;;;;22.21;59.37;96694.31;5045335;28;19959;-83
2022/08/29 07:18:43;;;;;;;;;;;;;;;22.29;60.41;96709.72;5046719;28;19974;-83
2022/08/29 07:21:11;;;;;;;;;;;;;;;22.39;59.74;96700.00;5046255;28;19961;-82
2022/08/29 07:23:37;;;;;;;;;;;;;;;22.39;59.15;96700.78;5038048;28;19954;-83
2022/08/29 07:26:10;;;;;;;;;;;;;;;22.27;59.06;96701.19;5038696;28;19995;-82
2022/08/29 07:28:36;;;;;;;;;;;;;;;22.16;61.54;96728.31;5043540;28;19961;-82
2022/08/29 07:31:03;;;;;;;;;;;;;;;22.21;60.10;96713.00;5043714;28;19962;-82
2022/08/29 07:33:30;;;;;;;;;;;;;;;22.34;60.67;96718.75;5043271;28;19977;-82
2022/08/29 07:35:56;;;;;;;;;;;;;;;22.50;60.09;96712.13;5041422;28;19971;-82
2022/08/29 07:38:22;;;;;;;;;;;;;;;22.44;59.67;96699.94;5049741;28;19985;-82
2022/08/29 07:40:55;;;;;;;;;;;;;;;22.42;59.15;96699.41;5056727;28;20024;-82
2022/08/29 07:43:21;;;;;;;;;;;;;;;22.50;60.08;96706.78;5044063;28;20424;-82
2022/08/29 07:45:47;;;;;;;;;;;;;;;22.64;59.92;96707.66;5046145;28;19965;-82
2022/08/29 07:48:13;;;;;;;;;;;;;;;22.72;59.17;96698.22;5035463;28;20016;-82
2022/08/29 07:50:40;;;;;;;;;;;;;;;22.81;59.32;96701.81;5046512;28;19978;-82
2022/08/29 07:53:06;;;;;;;;;;;;;;;22.96;58.37;96694.66;5040771;28;19972;-82
2022/08/29 07:55:32;;;;;;;;;;;;;;;23.09;59.07;96701.94;5050653;28;19965;-82
2022/08/29 07:57:58;;;;;;;;;;;;;;;23.22;58.95;96695.03;5039070;28;20028;-82
2022/08/29 08:00:24;;;;;;;;;;;;;;;23.32;58.29;96702.13;5040288;28;20045;-82
2022/08/29 08:02:50;;;;;;;;;;;;;;;23.30;57.34;96700.53;5041431;28;19968;-82
2022/08/29 08:05:16;;;;;;;;;;;;;;;23.20;57.56;96691.88;5037817;28;20018;-82
2022/08/29 08:07:42;;;;;;;;;;;;;;;22.97;57.73;96693.53;5049376;28;19971;-82
2022/08/29 08:10:08;;;;;;;;;;;;;;;22.93;58.95;96698.69;5037035;28;19994;-82
2022/08/29 08:12:34;;;;;;;;;;;;;;;23.01;58.19;96691.91;5048102;28;19965;-82
2022/08/29 08:15:00;;;;;;;;;;;;;;;23.07;57.10;96677.38;5034807;28;20082;-82
2022/08/29 08:17:26;;;;;;;;;;;;;;;23.09;58.03;96692.03;5041989;28;19961;-82
2022/08/29 08:19:51;;;;;;;;;;;;;;;23.18;58.90;96702.88;5046504;28;19964;-81
2022/08/29 08:22:17;;;;;;;;;;;;;;;23.38;58.05;96696.38;5044604;28;20013;-81
2022/08/29 08:24:43;;;;;;;;;;;;;;;23.58;56.59;96683.72;5041646;28;19957;-82
2022/08/29 08:27:09;;;;;;;;;;;;;;;23.64;56.91;96680.66;5040996;28;19987;-82
2022/08/29 08:29:35;;;;;;;;;;;;;;;23.76;56.58;96680.19;5047701;28;20039;-82
2022/08/29 08:32:01;;;;;;;;;;;;;;;23.91;55.37;96674.53;5044569;28;19969;-81
2022/08/29 08:34:29;;;;;;;;;;;;;;;23.97;54.22;96663.75;5036646;28;19970;-82
2022/08/29 08:36:55;;;;;;;;;;;;;;;24.07;55.92;96676.94;5044597;28;19965;-81
2022/08/29 08:39:20;;;;;;;;;;;;;;;24.26;55.85;96666.88;5046910;28;19967;-81
2022/08/29 08:41:49;;;;;;;;;;;;;;;24.45;54.62;96663.25;5043568;28;19996;-82
2022/08/29 08:44:22;;;;;;;;;;;;;;;24.41;54.56;96660.38;5041548;28;19957;-82
2022/08/29 08:46:51;;;;;;;;;;;;;;;24.39;55.19;96680.56;5042291;28;19963;-81
2022/08/29 08:49:21;;;;;;;;;;;;;;;24.38;54.32;96666.38;5043556;28;19961;-81
2022/08/29 08:51:50;;;;;;;;;;;;;;;24.44;56.08;96686.59;5050349;28;19962;-81
2022/08/29 08:54:23;;;;;;;;;;;;;;;24.45;51.73;96652.53;5041575;28;20010;-81
2022/08/29 08:56:59;;;;;;;;;;;;;;;24.39;53.42;96661.78;5048109;28;20440;-82
2022/08/29 08:59:28;;;;;;;;;;;;;;;24.27;54.20;96681.06;5044554;28;19967;-81
2022/08/29 09:01:59;;;;;;;;;;;;;;;24.29;52.27;96665.47;5042988;28;19968;-81
2022/08/29 09:04:24;;;;;;;;;;;;;;;24.28;55.42;96704.09;5036633;28;19952;-81
2022/08/29 09:06:57;;;;;;;;;;;;;;;24.15;55.04;96694.16;5042936;28;19980;-81
2022/08/29 09:09:29;;;;;;;;;;;;;;;24.20;55.93;96705.59;5048439;28;19952;-81
2022/08/29 09:12:05;;;;;;;;;;;;;;;24.36;55.92;96702.59;5051464;28;19955;-81
2022/08/29 09:14:50;;;;;;;;;;;;;;;24.41;54.39;96684.50;5049984;28;19955;-81
2022/08/29 09:17:26;;;;;;;;;;;;;;;24.44;52.64;96667.84;5055828;28;19959;-81
2022/08/29 09:19:54;;;;;;;;;;;;;;;24.49;54.24;96678.47;5055544;28;19979;-81
2022/08/29 09:22:28;;;;;;;;;;;;;;;24.37;53.83;96677.38;5047138;28;19956;-81
2022/08/29 09:25:03;;;;;;;;;;;;;;;24.25;53.84;96680.56;5047553;28;19966;-81
2022/08/29 09:27:30;;;;;;;;;;;;;;;24.10;54.23;96687.03;5048538;28;19961;-81
2022/08/29 09:30:16;;;;;;;;;;;;;;;24.06;55.18;96702.91;5049380;28;19960;-81
2022/08/29 09:32:53;;;;;;;;;;;;;;;24.07;54.34;96696.47;5050083;28;19956;-81
2022/08/29 09:35:23;;;;;;;;;;;;;;;24.14;54.91;96700.63;5040487;28;19960;-81
2022/08/29 09:37:57;;;;;;;;;;;;;;;24.21;52.66;96668.84;5046808;28;19963;-81
2022/08/29 09:40:23;;;;;;;;;;;;;;;24.25;52.96;96677.88;5049197;28;19954;-81
2022/08/29 09:42:58;;;;;;;;;;;;;;;24.34;54.09;96691.38;5047923;28;19960;-81
2022/08/29 09:45:24;;;;;;;;;;;;;;;24.37;54.26;96704.19;5049821;28;19957;-83
2022/08/29 09:48:13;;;;;;;;;;;;;;;24.36;53.85;96690.00;5045815;28;20405;-83
2022/08/29 09:50:39;;;;;;;;;;;;;;;24.26;53.86;96695.56;5031713;28;19971;-83
2022/08/29 09:53:05;;;;;;;;;;;;;;;24.19;54.88;96705.88;5048638;28;19955;-85
2022/08/29 09:55:33;;;;;;;;;;;;;;;24.13;54.42;96693.69;5059268;28;19961;-85
2022/08/29 09:58:05;;;;;;;;;;;;;;;24.03;53.83;96689.34;5047063;28;19967;-83
2022/08/29 10:00:35;;;;;;;;;;;;;;;23.95;54.93;96692.72;5044562;28;20024;-84
2022/08/29 10:03:04;;;;;;;;;;;;;;;23.83;50.88;96661.06;5048073;28;19962;-83
2022/08/29 10:05:35;;;;;;;;;;;;;;;23.71;51.51;96665.00;5040677;28;20469;-83
2022/08/29 10:08:03;;;;;;;;;;;;;;;23.77;54.22;96691.69;5050052;28;19955;-83
2022/08/29 10:10:31;;;;;;;;;;;;;;;23.79;51.02;96668.09;5044848;28;19962;-84
2022/08/29 10:13:10;;;;;;;;;;;;;;;23.96;52.31;96683.56;5041264;28;19964;-84
2022/08/29 10:15:45;;;;;;;;;;;;;;;24.11;52.91;96683.28;5046942;28;20320;-83
2022/08/29 10:18:22;;;;;;;;;;;;;;;24.28;50.06;96661.22;5045438;28;20340;-83
2022/08/29 10:20:51;;;;;;;;;;;;;;;24.47;52.30;96682.53;5047463;28;20135;-81
2022/08/29 10:23:26;;;;;;;;;;;;;;;24.65;50.96;96667.38;5037699;28;20297;-81
2022/08/29 10:25:52;;;;;;;;;;;;;;;24.84;51.66;96673.41;5045368;28;20347;-81
2022/08/29 10:28:38;;;;;;;;;;;;;;;24.95;47.82;96660.53;5032953;28;19966;-81
2022/08/29 10:31:11;;;;;;;;;;;;;;;25.00;48.53;96673.81;5043524;28;19964;-81
2022/08/29 10:33:53;;;;;;;;;;;;;;;24.97;47.93;96682.47;5052124;28;19981;-81
2022/08/29 10:36:25;;;;;;;;;;;;;;;25.03;48.70;96688.50;5036380;28;19973;-82
2022/08/29 10:38:55;;;;;;;;;;;;;;;25.07;46.52;96676.06;5030823;28;19972;-81
2022/08/29 10:41:30;;;;;;;;;;;;;;;25.14;47.59;96689.06;5034312;28;19972;-81
2022/08/29 10:44:16;;;;;;;;;;;;;;;25.23;45.74;96688.03;5027228;28;20055;-81
2022/08/29 10:46:48;;;;;;;;;;;;;;;25.17;46.60;96707.22;5035566;28;19964;-81
2022/08/29 10:49:49;;;;;;;;;;;;;;;25.22;45.60;96707.13;5027398;28;19965;-83
2022/08/29 10:52:36;;;;;;;;;;;;;;;25.37;45.35;96705.97;4966795;28;20404;-84
2022/08/29 10:55:08;;;;;;;;;;;;;;;25.59;45.81;96702.44;5029811;28;19961;-83
2022/08/29 10:57:34;;;;;;;;;;;;;;;25.68;43.66;96695.22;5026285;28;19966;-81
2022/08/29 11:00:00;;;;;;;;;;;;;;;25.77;44.61;96700.66;5036929;28;19976;-81
2022/08/29 11:02:29;;;;;;;;;;;;;;;25.79;46.64;96712.66;5044666;28;19972;-81
2022/08/29 11:04:58;;;;;;;;;;;;;;;25.91;46.08;96701.34;5046005;28;20407;-81
2022/08/29 11:07:36;;;;;;;;;;;;;;;25.93;43.73;96691.09;5047754;28;19960;-81
2022/08/29 11:10:23;;;;;;;;;;;;;;;25.99;46.33;96699.81;5048608;28;19963;-81
2022/08/29 11:12:49;;;;;;;;;;;;;;;26.12;44.40;96699.69;5043761;28;20095;-81
2022/08/29 11:15:17;;;;;;;;;;;;;;;26.22;43.16;96685.16;5040796;28;19957;-81
2022/08/29 11:17:47;;;;;;;;;;;;;;;26.24;43.81;96701.75;5041837;28;19956;-81
2022/08/29 11:20:19;;;;;;;;;;;;;;;26.32;43.85;96697.53;5039349;28;19973;-81
2022/08/29 11:22:49;;;;;;;;;;;;;;;26.26;42.65;96699.56;5042289;28;19977;-81
2022/08/29 11:25:17;;;;;;;;;;;;;;;26.04;41.97;96700.47;5046479;28;19979;-80
2022/08/29 11:28:02;;;;;;;;;;;;;;;25.98;43.00;96700.91;5038600;28;19968;-81
2022/08/29 11:30:43;;;;;;;;;;;;;;;25.77;42.57;96697.97;5045286;28;19968;-81
2022/08/29 11:33:15;;;;;;;;;;;;;;;25.50;41.47;96689.78;5042321;28;20438;-80
2022/08/29 11:35:59;;;;;;;;;;;;;;;25.47;44.62;96701.16;5038548;28;19961;-81
2022/08/29 11:38:37;;;;;;;;;;;;;;;25.68;42.80;96689.84;5046462;28;19972;-81
2022/08/29 11:41:19;;;;;;;;;;;;;;;25.88;43.00;96689.31;5044952;28;20427;-80
2022/08/29 11:43:46;;;;;;;;;;;;;;;26.01;42.03;96682.25;5035866;28;20329;-80
2022/08/29 11:46:13;;;;;;;;;;;;;;;26.07;41.31;96677.53;5043208;28;19953;-81
2022/08/29 11:48:41;;;;;;;;;;;;;;;26.13;42.42;96677.06;5046596;28;19986;-81
2022/08/29 11:51:26;;;;;;;;;;;;;;;26.16;41.04;96686.41;5042329;28;19955;-80
2022/08/29 11:53:51;;;;;;;;;;;;;;;26.07;42.64;96686.38;5033497;28;19966;-81
2022/08/29 11:56:25;;;;;;;;;;;;;;;26.32;43.60;96692.94;5038976;28;19966;-81
2022/08/29 11:58:53;;;;;;;;;;;;;;;26.69;41.26;96671.16;5040782;28;19986;-80
2022/08/29 12:01:34;;;;;;;;;;;;;;;26.98;41.35;96669.72;5044602;28;19955;-81
2022/08/29 12:04:07;;;;;;;;;;;;;;;27.22;38.88;96653.88;5044726;28;19996;-80
2022/08/29 12:06:52;;;;;;;;;;;;;;;27.16;37.89;96649.75;5046070;28;20417;-80
2022/08/29 12:09:25;;;;;;;;;;;;;;;27.02;39.60;96667.97;5040617;28;19978;-80
2022/08/29 12:11:57;;;;;;;;;;;;;;;27.00;39.32;96668.28;5039718;28;19958;-80
2022/08/29 12:14:33;;;;;;;;;;;;;;;26.96;41.08;96667.34;5045545;28;19952;-80
2022/08/29 12:17:02;;;;;;;;;;;;;;;26.70;40.07;96667.38;5051215;28;20426;-80
2022/08/29 12:19:58;;;;;;;;;;;;;;;26.53;39.29;96655.47;5043711;28;19968;-80
2022/08/29 12:22:42;;;;;;;;;;;;;;;26.73;41.32;96680.16;5022752;28;19969;-81
2022/08/29 12:25:27;;;;;;;;;;;;;;;27.06;40.25;96663.53;5029935;28;19962;-81
2022/08/29 12:27:55;;;;;;;;;;;;;;;27.28;38.61;96649.91;5038518;28;19962;-81
2022/08/29 12:30:21;;;;;;;;;;;;;;;27.42;38.79;96657.75;5043208;28;19967;-81
2022/08/29 12:32:51;;;;;;;;;;;;;;;27.50;39.36;96658.84;5041615;28;20336;-81
2022/08/29 12:35:17;;;;;;;;;;;;;;;27.58;37.91;96649.16;5044697;28;19969;-81
2022/08/29 12:38:12;;;;;;;;;;;;;;;27.70;36.91;96641.97;5044559;28;19966;-81
2022/08/29 12:40:47;;;;;;;;;;;;;;;27.68;37.77;96648.81;5015827;28;19975;-81
2022/08/29 12:43:21;;;;;;;;;;;;;;;27.58;37.94;96647.25;5044704;28;20431;-81
2022/08/29 12:45:48;;;;;;;;;;;;;;;27.50;38.00;96650.78;5043851;28;19961;-81
2022/08/29 12:48:21;;;;;;;;;;;;;;;27.29;38.12;96650.69;5044309;28;19949;-81
2022/08/29 12:50:49;;;;;;;;;;;;;;;27.10;36.64;96635.66;5045627;28;19960;-81
2022/08/29 12:53:23;;;;;;;;;;;;;;;27.06;37.58;96642.00;5045797;28;19966;-81
2022/08/29 12:55:51;;;;;;;;;;;;;;;27.19;38.90;96635.63;5038050;28;20335;-80
2022/08/29 12:58:37;;;;;;;;;;;;;;;27.43;36.11;96627.03;5048322;28;19961;-81
2022/08/29 13:01:05;;;;;;;;;;;;;;;27.63;37.09;96630.13;5042764;28;19969;-80